Air Resources Laboratory banner image
Air Resources Laboratory web site National Oceanic and Atmospheric Administration (NOAA)

mt metar


KBHK 220051Z AUTO 00000KT 10SM CLR 08/M05 A3008 RMK AO2 SLP197 T00781050=
KBIL 220053Z 04003KT 10SM SCT240 13/01 A3005 RMK AO2 SLP177 T01330011=
KBTM 220053Z AUTO VRB06KT 10SM CLR 16/M03 A3011 RMK AO2 SLP183 T01611033=
KBZN 220056Z 25006KT 10SM CLR 13/00 A3006 RMK AO2 SLP184 T01330000=
KCTB 220056Z AUTO 01011KT 10SM CLR 08/M02 A3013 RMK AO2 SLP228 T00781022=
KDLN 220053Z AUTO 16007KT 10SM CLR 13/M03 A3008 RMK AO2 SLP168 T01331033=
KGDV 220056Z AUTO 06003KT 10SM CLR 09/M06 A3008 RMK AO2 SLP203 T00891056=
KGGW 220053Z AUTO 05005KT 10SM CLR 10/M05 A3007 RMK AO2 SLP198 T01001050=
KGTF 220053Z 04006KT 10SM CLR 09/M03 A3010 RMK AO2 SLP216 T00941033=
KHLN 220053Z 00000KT 10SM CLR 12/02 A3006 RMK AO2 SLP203 T01220022=
KHVR 220053Z AUTO 06003KT 10SM CLR 10/M04 A3009 RMK AO2 SLP201 T01001044=
KJDN 220048Z AUTO 11003KT 07/M03 A3007 RMK AO1 SLP208 T00671033=
KLVM 220053Z AUTO 10004KT 10SM CLR 12/02 A3007 RMK AO2 SLP181 T01170017 $=
KLWT 220054Z AUTO 00000KT 10SM CLR 09/M02 A3010 RMK AO2 SLP198 T00891017=
KMLS 220053Z AUTO 05008KT 10SM CLR 11/M02 A3004 RMK AO2 SLP186 T01061017 $=
KMSO 220053Z VRB03KT 10SM CLR 13/M01 A3003 RMK AO2 SLP182 T01331006=
KOLF 220053Z AUTO 30004KT 10SM CLR 08/M03 A3007 RMK AO2 SLP202 T00831033=
KSDY 220056Z AUTO 30008KT 10SM 08/M04 A3007 RMK AO2 SLP203 T00781044 $=
KWYS 220055Z AUTO 20003KT 10SM CLR 06/M04 A3018 RMK AO2=